createdAt,value
2023-05-13T00:01:38.779Z,10.80
2023-05-13T00:04:06.800Z,10.70
2023-05-13T00:06:37.250Z,10.80
2023-05-13T00:09:04.332Z,10.80
2023-05-13T00:11:31.183Z,10.80
2023-05-13T00:13:58.025Z,10.80
2023-05-13T00:16:27.663Z,10.80
2023-05-13T00:18:55.993Z,10.80
2023-05-13T00:21:23.630Z,10.80
2023-05-13T00:23:50.611Z,10.80
2023-05-13T00:26:17.601Z,10.80
2023-05-13T00:28:44.448Z,10.80
2023-05-13T00:31:11.588Z,10.70
2023-05-13T00:33:38.741Z,10.70
2023-05-13T00:36:06.464Z,10.70
2023-05-13T00:38:33.450Z,10.70
2023-05-13T00:41:00.564Z,10.70
2023-05-13T00:43:27.336Z,10.70
2023-05-13T00:45:54.213Z,10.70
2023-05-13T00:48:21.722Z,10.60
2023-05-13T00:50:49.328Z,10.60
2023-05-13T00:53:17.104Z,10.70
2023-05-13T00:55:45.425Z,10.70
2023-05-13T00:58:13.050Z,10.70
2023-05-13T01:01:00.611Z,10.70
2023-05-13T01:03:44.137Z,10.60
2023-05-13T01:06:20.785Z,10.70
2023-05-13T01:08:53.669Z,10.60
2023-05-13T01:11:30.900Z,10.60
2023-05-13T01:14:05.970Z,10.60
2023-05-13T01:16:43.269Z,10.60
2023-05-13T01:19:42.006Z,10.60
2023-05-13T01:22:08.890Z,10.60
2023-05-13T01:24:36.443Z,10.60
2023-05-13T01:27:03.560Z,10.60
2023-05-13T01:29:30.808Z,10.60
2023-05-13T01:31:59.215Z,10.50
2023-05-13T01:34:27.177Z,10.50
2023-05-13T01:36:54.245Z,10.50
2023-05-13T01:39:22.664Z,10.50
2023-05-13T01:41:49.620Z,10.50
2023-05-13T01:44:16.528Z,10.50
2023-05-13T01:46:44.220Z,10.50
2023-05-13T01:49:11.161Z,10.40
2023-05-13T01:51:38.385Z,10.40
2023-05-13T01:54:05.646Z,10.40
2023-05-13T01:56:32.527Z,10.40
2023-05-13T01:58:59.305Z,10.40
2023-05-13T02:01:26.343Z,10.50
2023-05-13T02:03:55.711Z,10.30
2023-05-13T02:06:22.678Z,10.30
2023-05-13T02:08:49.487Z,10.30
2023-05-13T02:11:16.822Z,10.40
2023-05-13T02:13:43.796Z,10.20
2023-05-13T02:16:14.559Z,10.30
2023-05-13T02:18:41.482Z,10.30
2023-05-13T02:21:08.577Z,10.30
2023-05-13T02:23:37.801Z,10.30
2023-05-13T02:26:04.707Z,10.20
2023-05-13T02:28:31.807Z,10.20
2023-05-13T02:31:00.897Z,10.20
2023-05-13T02:33:27.790Z,10.20
2023-05-13T02:35:54.833Z,10.20
2023-05-13T02:38:21.796Z,10.30
2023-05-13T02:40:48.732Z,10.20
2023-05-13T02:43:15.532Z,10.20
2023-05-13T02:45:42.384Z,10.20
2023-05-13T02:48:11.022Z,10.10
2023-05-13T02:50:38.035Z,10.20
2023-05-13T02:53:04.856Z,10.10
2023-05-13T02:55:31.748Z,10.10
2023-05-13T02:57:58.641Z,10.20
2023-05-13T03:00:25.532Z,10.20
2023-05-13T03:02:52.559Z,10.10
2023-05-13T03:05:19.529Z,10.10
2023-05-13T03:07:46.388Z,10.00
2023-05-13T03:10:13.872Z,10.10
2023-05-13T03:12:40.744Z,10.10
2023-05-13T03:15:08.158Z,10.00
2023-05-13T03:17:35.074Z,10.10
2023-05-13T03:20:04.147Z,10.00
2023-05-13T03:22:30.978Z,10.00
2023-05-13T03:24:58.510Z,10.00
2023-05-13T03:27:25.465Z,9.90
2023-05-13T03:29:52.294Z,9.90
2023-05-13T03:32:21.521Z,9.90
2023-05-13T03:34:48.363Z,9.90
2023-05-13T03:37:15.221Z,9.90
2023-05-13T03:39:42.019Z,9.90
2023-05-13T03:42:08.927Z,10.00
2023-05-13T03:44:36.020Z,9.90
2023-05-13T03:47:03.015Z,9.90
2023-05-13T03:49:29.994Z,9.90
2023-05-13T03:51:56.833Z,9.80
2023-05-13T03:54:23.845Z,9.80
2023-05-13T03:56:50.868Z,9.70
2023-05-13T03:59:17.900Z,9.70
2023-05-13T04:01:44.751Z,9.70
2023-05-13T04:04:11.681Z,9.70
2023-05-13T04:06:38.551Z,9.70
2023-05-13T04:09:08.408Z,9.70
2023-05-13T04:11:35.352Z,9.70
2023-05-13T04:14:02.309Z,9.70
2023-05-13T04:16:29.454Z,9.70
2023-05-13T04:18:56.332Z,9.70
2023-05-13T04:21:23.162Z,9.70
2023-05-13T04:23:49.935Z,9.80
2023-05-13T04:26:16.923Z,9.70
2023-05-13T04:28:43.698Z,9.70
2023-05-13T04:31:11.629Z,9.80
2023-05-13T04:33:38.403Z,9.80
2023-05-13T04:36:05.923Z,9.80
2023-05-13T04:38:32.824Z,9.80
2023-05-13T04:40:59.791Z,9.90
2023-05-13T04:43:26.756Z,9.90
2023-05-13T04:45:53.791Z,9.80
2023-05-13T04:48:20.703Z,10.00
2023-05-13T04:50:47.873Z,10.00
2023-05-13T04:53:18.218Z,10.00
2023-05-13T04:55:48.350Z,10.00
2023-05-13T04:58:16.926Z,10.10
2023-05-13T05:00:43.872Z,10.10
2023-05-13T05:03:10.927Z,10.20
2023-05-13T05:05:40.038Z,10.20
2023-05-13T05:08:06.873Z,10.10
2023-05-13T05:10:37.309Z,10.20
2023-05-13T05:13:06.545Z,10.20
2023-05-13T05:15:36.218Z,10.40
2023-05-13T05:18:03.323Z,10.40
2023-05-13T05:20:30.250Z,10.50
2023-05-13T05:22:59.882Z,10.70
2023-05-13T05:25:26.886Z,10.60
2023-05-13T05:27:55.757Z,10.80
2023-05-13T05:30:22.964Z,10.80
2023-05-13T05:32:50.247Z,10.70
2023-05-13T05:35:19.677Z,10.70
2023-05-13T05:37:46.739Z,10.80
2023-05-13T05:40:13.858Z,10.90
2023-05-13T05:42:40.730Z,11.00
2023-05-13T05:45:08.197Z,10.90
2023-05-13T05:47:37.549Z,11.00
2023-05-13T05:50:04.984Z,11.00
2023-05-13T05:52:31.885Z,11.00
2023-05-13T05:55:04.416Z,11.00
2023-05-13T05:57:31.222Z,11.00
2023-05-13T06:00:00.774Z,11.00
2023-05-13T06:02:30.352Z,10.90
2023-05-13T06:04:57.296Z,10.90
2023-05-13T06:07:24.243Z,11.00
2023-05-13T06:09:51.196Z,11.10
2023-05-13T06:12:22.975Z,11.10
2023-05-13T06:14:50.239Z,11.20
2023-05-13T06:17:17.147Z,11.20
2023-05-13T06:19:44.169Z,11.30
2023-05-13T06:22:13.673Z,11.50
2023-05-13T06:24:44.635Z,11.50
2023-05-13T06:27:12.212Z,11.70
2023-05-13T06:29:41.496Z,11.80
2023-05-13T06:32:08.455Z,11.60
2023-05-13T06:34:37.708Z,11.70
2023-05-13T06:37:04.695Z,12.00
2023-05-13T06:39:31.644Z,12.30
2023-05-13T06:42:00.616Z,12.70
2023-05-13T06:44:27.430Z,14.10
2023-05-13T06:46:54.250Z,14.90
2023-05-13T06:49:21.372Z,14.60
2023-05-13T06:51:48.305Z,14.30
2023-05-13T06:54:15.462Z,14.00
2023-05-13T06:56:42.494Z,14.00
2023-05-13T06:59:09.483Z,13.80
2023-05-13T07:01:36.507Z,13.50
2023-05-13T07:04:03.557Z,14.10
2023-05-13T07:06:30.682Z,15.00
2023-05-13T07:08:57.925Z,16.10
2023-05-13T07:11:24.742Z,16.40
2023-05-13T07:13:51.564Z,17.20
2023-05-13T07:16:18.363Z,17.60
2023-05-13T07:18:45.244Z,18.00
2023-05-13T07:21:13.085Z,18.80
2023-05-13T07:23:39.909Z,18.90
2023-05-13T07:26:06.725Z,19.20
2023-05-13T07:28:33.501Z,19.50
2023-05-13T07:31:00.535Z,19.60
2023-05-13T07:33:30.093Z,20.00
2023-05-13T07:35:57.155Z,19.80
2023-05-13T07:38:24.076Z,20.80
2023-05-13T07:40:50.895Z,21.30
2023-05-13T07:43:23.882Z,20.70
2023-05-13T07:45:51.434Z,20.60
2023-05-13T07:48:18.463Z,21.30
2023-05-13T07:50:46.170Z,21.40
2023-05-13T07:53:13.131Z,21.00
2023-05-13T07:55:40.105Z,21.10
2023-05-13T07:58:07.007Z,22.00
2023-05-13T08:00:33.823Z,21.80
2023-05-13T08:03:00.753Z,21.90
2023-05-13T08:05:27.745Z,22.50
2023-05-13T08:07:54.513Z,22.60
2023-05-13T08:10:21.365Z,23.20
2023-05-13T08:12:52.209Z,23.30
2023-05-13T08:15:19.485Z,23.10
2023-05-13T08:17:46.513Z,23.30
2023-05-13T08:20:15.208Z,23.70
2023-05-13T08:22:43.693Z,23.10
2023-05-13T08:25:13.235Z,23.90
2023-05-13T08:27:40.130Z,24.50
2023-05-13T08:30:07.618Z,23.80
2023-05-13T08:32:34.557Z,23.10
2023-05-13T08:35:01.505Z,23.70
2023-05-13T08:37:28.369Z,23.70
2023-05-13T08:39:56.584Z,23.50
2023-05-13T08:42:24.653Z,23.00
2023-05-13T08:44:53.376Z,22.60
2023-05-13T08:47:47.938Z,22.20
2023-05-13T08:50:15.300Z,23.30
2023-05-13T08:52:43.390Z,24.00
2023-05-13T08:55:11.142Z,23.20
2023-05-13T08:57:38.294Z,23.60
2023-05-13T09:00:05.838Z,23.30
2023-05-13T09:02:32.766Z,24.10
2023-05-13T09:05:06.091Z,23.40
2023-05-13T09:07:33.838Z,23.00
2023-05-13T09:10:00.765Z,22.40
2023-05-13T09:12:49.897Z,23.90
2023-05-13T09:15:19.309Z,24.30
2023-05-13T09:17:50.704Z,24.70
2023-05-13T09:20:19.461Z,24.90
2023-05-13T09:23:01.336Z,25.00
2023-05-13T09:25:29.041Z,26.10
2023-05-13T09:28:04.328Z,26.20
2023-05-13T09:30:34.832Z,25.80
2023-05-13T09:33:11.931Z,26.30
2023-05-13T09:35:44.102Z,27.10
2023-05-13T09:38:15.029Z,26.70
2023-05-13T09:40:49.147Z,26.50
2023-05-13T09:43:16.200Z,26.60
2023-05-13T09:45:43.116Z,26.40
2023-05-13T09:48:13.004Z,25.50
2023-05-13T09:50:49.938Z,25.40
2023-05-13T09:53:17.126Z,25.90
2023-05-13T09:55:52.103Z,26.20
2023-05-13T09:58:20.463Z,27.10
2023-05-13T10:00:48.215Z,25.90
2023-05-13T10:03:16.338Z,25.70
2023-05-13T10:05:43.463Z,26.20
2023-05-13T10:08:13.741Z,26.50
2023-05-13T10:10:42.401Z,27.00
2023-05-13T10:13:11.006Z,26.50
2023-05-13T10:15:50.045Z,26.00
2023-05-13T10:18:18.361Z,26.50
2023-05-13T10:20:46.060Z,25.50
2023-05-13T10:23:13.334Z,25.10
2023-05-13T10:25:40.159Z,25.90
2023-05-13T10:28:07.412Z,26.20
2023-05-13T10:30:35.959Z,26.40
2023-05-13T10:33:03.981Z,26.90
2023-05-13T10:35:37.544Z,26.20
2023-05-13T10:38:32.940Z,26.10
2023-05-13T10:41:14.141Z,26.00
2023-05-13T10:43:41.288Z,26.90
2023-05-13T10:46:11.483Z,27.40
2023-05-13T10:48:59.292Z,26.90
2023-05-13T10:51:26.921Z,26.50
2023-05-13T10:53:55.805Z,26.50
2023-05-13T10:56:25.084Z,26.80
2023-05-13T10:59:02.694Z,26.80
2023-05-13T11:01:33.861Z,27.50
2023-05-13T11:04:03.290Z,27.00
2023-05-13T11:06:38.025Z,26.50
2023-05-13T11:09:28.990Z,26.60
2023-05-13T11:12:00.359Z,26.80
2023-05-13T11:14:32.339Z,26.40
2023-05-13T11:17:04.740Z,27.40
2023-05-13T11:19:37.291Z,27.10
2023-05-13T11:22:14.096Z,26.70
2023-05-13T11:24:41.465Z,27.10
2023-05-13T11:27:21.527Z,27.50
2023-05-13T11:29:53.244Z,27.70
2023-05-13T11:32:51.514Z,27.50
2023-05-13T11:35:25.966Z,26.70
2023-05-13T11:37:53.527Z,26.80
2023-05-13T11:40:24.067Z,27.10
2023-05-13T11:42:51.271Z,26.40
2023-05-13T11:45:22.899Z,26.50
2023-05-13T11:47:50.524Z,25.60
2023-05-13T11:50:24.380Z,24.10
2023-05-13T11:52:53.317Z,24.40
2023-05-13T11:55:34.529Z,24.50
2023-05-13T11:58:01.994Z,25.30
2023-05-13T12:00:34.281Z,25.40
2023-05-13T12:03:14.308Z,25.10
2023-05-13T12:05:42.974Z,26.30
2023-05-13T12:08:10.738Z,26.40
2023-05-13T12:10:46.013Z,26.80
2023-05-13T12:13:15.384Z,25.90
2023-05-13T12:15:42.651Z,25.40
2023-05-13T12:18:09.638Z,26.10
2023-05-13T12:20:37.869Z,26.50
2023-05-13T12:23:05.240Z,26.20
2023-05-13T12:25:32.016Z,25.90
2023-05-13T12:28:25.640Z,24.90
2023-05-13T12:30:53.822Z,25.20
2023-05-13T12:33:23.214Z,24.80
2023-05-13T12:35:52.482Z,23.90
2023-05-13T12:38:21.720Z,24.00
2023-05-13T12:40:49.585Z,23.80
2023-05-13T12:43:17.940Z,23.60
2023-05-13T12:45:47.855Z,23.40
2023-05-13T12:48:14.767Z,23.40
2023-05-13T12:50:41.742Z,24.00
2023-05-13T12:53:08.807Z,24.40
2023-05-13T12:55:40.035Z,24.30
2023-05-13T12:58:11.158Z,24.40
2023-05-13T13:00:38.257Z,24.50
2023-05-13T13:03:05.285Z,24.30
2023-05-13T13:05:33.063Z,24.60
2023-05-13T13:08:01.375Z,24.10
2023-05-13T13:10:28.780Z,23.10
2023-05-13T13:12:55.539Z,22.00
2023-05-13T13:15:22.605Z,21.90
2023-05-13T13:17:52.245Z,21.90
2023-05-13T13:20:20.575Z,21.90
2023-05-13T13:22:47.436Z,21.20
2023-05-13T13:25:15.253Z,20.80
2023-05-13T13:27:42.106Z,20.50
2023-05-13T13:30:09.403Z,20.60
2023-05-13T13:32:36.414Z,20.70
2023-05-13T13:35:05.641Z,20.90
2023-05-13T13:37:32.699Z,21.00
2023-05-13T13:40:00.806Z,21.20
2023-05-13T13:42:40.183Z,21.40
2023-05-13T13:45:11.324Z,21.50
2023-05-13T13:47:38.516Z,21.50
2023-05-13T13:50:06.203Z,21.30
2023-05-13T13:52:34.289Z,21.20
2023-05-13T13:55:01.117Z,21.00
2023-05-13T13:57:27.914Z,21.00
2023-05-13T13:59:54.699Z,20.40
2023-05-13T14:02:22.007Z,20.20
2023-05-13T14:04:48.901Z,20.50
2023-05-13T14:07:16.000Z,21.10
2023-05-13T14:09:42.848Z,21.30
2023-05-13T14:12:09.615Z,21.30
2023-05-13T14:14:36.561Z,21.10
2023-05-13T14:17:03.585Z,21.10
2023-05-13T14:19:30.359Z,21.10
2023-05-13T14:21:57.232Z,20.80
2023-05-13T14:24:24.574Z,20.70
2023-05-13T14:26:51.409Z,20.80
2023-05-13T14:29:18.209Z,21.00
2023-05-13T14:31:45.170Z,20.90
2023-05-13T14:34:12.064Z,20.50
2023-05-13T14:36:38.946Z,20.30
2023-05-13T14:39:06.123Z,20.40
2023-05-13T14:41:36.615Z,20.40
2023-05-13T14:44:06.481Z,20.20
2023-05-13T14:46:37.046Z,20.10
2023-05-13T14:49:04.071Z,20.00
2023-05-13T14:51:31.723Z,20.20
2023-05-13T14:53:58.708Z,20.30
2023-05-13T14:56:25.624Z,20.20
2023-05-13T14:58:59.216Z,20.00
2023-05-13T15:01:26.177Z,20.00
2023-05-13T15:03:53.085Z,20.10
2023-05-13T15:06:20.303Z,20.20
2023-05-13T15:08:47.445Z,20.20
2023-05-13T15:11:15.854Z,20.20
2023-05-13T15:13:42.766Z,20.00
2023-05-13T15:16:10.976Z,19.90
2023-05-13T15:18:37.852Z,19.90
2023-05-13T15:21:04.947Z,19.70
2023-05-13T15:23:31.981Z,19.70
2023-05-13T15:25:59.468Z,19.80
2023-05-13T15:28:26.236Z,19.70
2023-05-13T15:30:53.099Z,19.60
2023-05-13T15:33:20.056Z,19.60
2023-05-13T15:35:46.991Z,19.70
2023-05-13T15:38:13.878Z,19.60
2023-05-13T15:40:41.800Z,19.70
2023-05-13T15:43:10.546Z,19.90
2023-05-13T15:45:37.562Z,19.80
2023-05-13T15:48:04.681Z,19.60
2023-05-13T15:50:31.956Z,19.80
2023-05-13T15:52:58.916Z,19.80
2023-05-13T15:55:26.333Z,19.60
2023-05-13T15:57:53.114Z,19.70
2023-05-13T16:00:22.698Z,19.70
2023-05-13T16:02:49.660Z,19.50
2023-05-13T16:05:19.214Z,19.50
2023-05-13T16:07:46.329Z,19.60
2023-05-13T16:10:13.224Z,19.60
2023-05-13T16:12:40.022Z,19.60
2023-05-13T16:15:08.679Z,19.40
2023-05-13T16:17:35.834Z,19.50
2023-05-13T16:20:05.185Z,19.50
2023-05-13T16:22:34.824Z,19.30
2023-05-13T16:25:04.613Z,19.40
2023-05-13T16:27:32.496Z,19.50
2023-05-13T16:30:00.981Z,19.50
2023-05-13T16:32:28.686Z,19.50
2023-05-13T16:34:58.311Z,19.40
2023-05-13T16:37:25.182Z,19.40
2023-05-13T16:39:52.034Z,19.40
2023-05-13T16:42:21.952Z,19.40
2023-05-13T16:44:48.919Z,19.30
2023-05-13T16:47:15.927Z,19.30
2023-05-13T16:49:43.009Z,19.30
2023-05-13T16:52:09.826Z,19.10
2023-05-13T16:54:36.705Z,19.00
2023-05-13T16:57:03.608Z,19.00
2023-05-13T16:59:30.481Z,18.80
2023-05-13T17:01:58.935Z,18.70
2023-05-13T17:04:26.733Z,18.70
2023-05-13T17:06:53.771Z,18.70
2023-05-13T17:09:20.611Z,18.70
2023-05-13T17:11:47.476Z,18.50
2023-05-13T17:14:20.079Z,18.50
2023-05-13T17:16:49.601Z,18.40
2023-05-13T17:19:16.736Z,18.20
2023-05-13T17:21:43.531Z,18.10
2023-05-13T17:24:10.388Z,18.00
2023-05-13T17:26:38.858Z,18.00
2023-05-13T17:29:06.132Z,18.00
2023-05-13T17:31:33.623Z,17.90
2023-05-13T17:34:02.512Z,17.90
2023-05-13T17:36:29.405Z,17.70
2023-05-13T17:38:56.253Z,17.60
2023-05-13T17:41:25.118Z,17.50
2023-05-13T17:43:51.966Z,17.40
2023-05-13T17:46:18.848Z,17.30
2023-05-13T17:48:52.162Z,17.20
2023-05-13T17:51:19.033Z,17.20
2023-05-13T17:53:45.875Z,17.20
2023-05-13T17:56:15.831Z,17.20
2023-05-13T17:58:51.475Z,17.10
2023-05-13T18:01:19.815Z,17.10
2023-05-13T18:03:46.774Z,17.00
2023-05-13T18:06:13.764Z,16.90
2023-05-13T18:08:40.846Z,16.80
2023-05-13T18:11:16.575Z,16.70
2023-05-13T18:13:43.329Z,16.80
2023-05-13T18:16:13.370Z,16.70
2023-05-13T18:18:45.201Z,16.70
2023-05-13T18:21:13.241Z,16.50
2023-05-13T18:23:44.157Z,16.40
2023-05-13T18:26:18.768Z,16.30
2023-05-13T18:28:45.611Z,16.20
2023-05-13T18:31:12.627Z,16.10
2023-05-13T18:33:39.606Z,16.00
2023-05-13T18:36:07.714Z,15.90
2023-05-13T18:38:35.192Z,15.80
2023-05-13T18:41:05.605Z,15.70
2023-05-13T18:43:32.540Z,15.60
2023-05-13T18:45:59.563Z,15.50
2023-05-13T18:48:26.479Z,15.40
2023-05-13T18:50:53.520Z,15.20
2023-05-13T18:53:20.498Z,15.10
2023-05-13T18:55:47.352Z,15.00
2023-05-13T18:58:14.162Z,15.00
2023-05-13T19:00:43.200Z,14.90
2023-05-13T19:03:10.156Z,14.60
2023-05-13T19:05:37.282Z,14.60
2023-05-13T19:08:05.492Z,14.60
2023-05-13T19:10:39.130Z,14.50
2023-05-13T19:13:07.216Z,14.50
2023-05-13T19:15:34.309Z,14.40
2023-05-13T19:18:01.352Z,14.30
2023-05-13T19:20:28.958Z,14.30
2023-05-13T19:22:56.595Z,14.20
2023-05-13T19:25:23.869Z,14.10
2023-05-13T19:27:51.073Z,14.00
2023-05-13T19:30:18.016Z,13.90
2023-05-13T19:32:45.001Z,13.80
2023-05-13T19:35:11.917Z,13.70
2023-05-13T19:37:38.995Z,13.60
2023-05-13T19:40:06.567Z,13.60
2023-05-13T19:42:33.385Z,13.50
2023-05-13T19:45:02.710Z,13.40
2023-05-13T19:47:30.665Z,13.30
2023-05-13T19:49:57.669Z,13.20
2023-05-13T19:52:27.051Z,13.20
2023-05-13T19:54:53.936Z,13.10
2023-05-13T19:57:21.762Z,13.10
2023-05-13T19:59:48.613Z,13.00
2023-05-13T20:02:15.693Z,12.90
2023-05-13T20:04:42.506Z,12.80
2023-05-13T20:07:09.623Z,12.80
2023-05-13T20:09:36.759Z,12.80
2023-05-13T20:12:04.282Z,12.70
2023-05-13T20:14:45.190Z,12.60
2023-05-13T20:17:17.410Z,12.50
2023-05-13T20:19:45.060Z,12.60
2023-05-13T20:22:11.880Z,12.50
2023-05-13T20:24:38.758Z,12.50
2023-05-13T20:27:06.048Z,12.40
2023-05-13T20:29:40.024Z,12.40
2023-05-13T20:32:06.920Z,12.30
2023-05-13T20:34:37.465Z,12.20
2023-05-13T20:37:04.866Z,12.10
2023-05-13T20:39:32.202Z,12.10
2023-05-13T20:41:59.001Z,12.10
2023-05-13T20:44:27.585Z,12.00
2023-05-13T20:46:54.412Z,11.90
2023-05-13T20:49:21.637Z,11.90
2023-05-13T20:51:51.635Z,11.80
2023-05-13T20:54:18.499Z,11.80
2023-05-13T20:56:50.886Z,11.70
2023-05-13T20:59:17.763Z,11.70
2023-05-13T21:01:47.461Z,11.60
2023-05-13T21:04:14.626Z,11.60
2023-05-13T21:06:42.088Z,11.50
2023-05-13T21:09:08.968Z,11.40
2023-05-13T21:11:35.832Z,11.10
2023-05-13T21:14:05.702Z,11.20
2023-05-13T21:16:32.630Z,11.20
2023-05-13T21:18:59.533Z,11.20
2023-05-13T21:21:26.353Z,11.20
2023-05-13T21:23:53.141Z,11.30
2023-05-13T21:26:21.823Z,11.10
2023-05-13T21:28:48.694Z,11.10
2023-05-13T21:31:15.925Z,11.10
2023-05-13T21:33:42.858Z,11.10
2023-05-13T21:36:09.816Z,11.10
2023-05-13T21:38:36.589Z,11.00
2023-05-13T21:41:03.451Z,10.90
2023-05-13T21:43:30.292Z,10.90
2023-05-13T21:45:57.094Z,10.90
2023-05-13T21:48:23.966Z,10.80
2023-05-13T21:50:51.084Z,10.80
2023-05-13T21:53:19.067Z,10.90
2023-05-13T21:55:45.955Z,11.00
2023-05-13T21:58:12.920Z,11.10
2023-05-13T22:00:41.288Z,11.20
2023-05-13T22:03:08.203Z,11.20
2023-05-13T22:05:37.546Z,11.20
2023-05-13T22:08:04.704Z,11.20
2023-05-13T22:10:31.654Z,11.20
2023-05-13T22:12:58.603Z,11.20
2023-05-13T22:15:25.770Z,11.10
2023-05-13T22:17:52.703Z,11.00
2023-05-13T22:20:19.791Z,11.00
2023-05-13T22:22:46.643Z,10.90
2023-05-13T22:25:13.660Z,10.90
2023-05-13T22:27:40.815Z,10.90
2023-05-13T22:30:08.227Z,10.90
2023-05-13T22:32:37.036Z,10.90
2023-05-13T22:35:04.994Z,11.00
2023-05-13T22:37:31.748Z,11.00
2023-05-13T22:39:58.533Z,11.00
2023-05-13T22:42:25.853Z,11.00
2023-05-13T22:44:52.798Z,10.90
2023-05-13T22:47:19.750Z,10.90
2023-05-13T22:49:46.577Z,10.90
2023-05-13T22:52:13.374Z,10.80
2023-05-13T22:54:40.261Z,10.60
2023-05-13T22:57:07.086Z,10.60
2023-05-13T22:59:33.889Z,10.60
2023-05-13T23:02:00.862Z,10.50
2023-05-13T23:04:28.586Z,10.50
2023-05-13T23:06:55.436Z,10.40
2023-05-13T23:09:26.489Z,10.30
2023-05-13T23:11:53.412Z,10.30
2023-05-13T23:14:20.774Z,10.20
2023-05-13T23:16:47.905Z,10.30
2023-05-13T23:19:14.977Z,10.20
2023-05-13T23:21:41.887Z,10.20
2023-05-13T23:24:08.728Z,10.10
2023-05-13T23:26:35.748Z,10.00
2023-05-13T23:29:02.647Z,10.00
2023-05-13T23:31:29.537Z,9.90
2023-05-13T23:33:58.834Z,9.80
2023-05-13T23:36:25.727Z,9.90
2023-05-13T23:38:52.470Z,9.90
2023-05-13T23:41:19.299Z,9.90
2023-05-13T23:43:46.161Z,9.90
2023-05-13T23:46:13.056Z,9.80
2023-05-13T23:48:40.226Z,9.80
2023-05-13T23:51:07.107Z,9.80
2023-05-13T23:53:34.063Z,9.70
2023-05-13T23:56:00.816Z,9.60
2023-05-13T23:58:27.638Z,9.70
